createdAt,value
2024-02-29T00:48:00.425Z,58.06
2024-02-29T00:53:23.369Z,58.33
2024-02-29T00:55:51.972Z,58.33
2024-02-29T00:58:20.107Z,58.22
2024-02-29T01:00:53.545Z,58.47
2024-02-29T01:03:22.181Z,58.15
2024-02-29T01:05:57.413Z,58.31
2024-02-29T01:08:26.729Z,58.20
2024-02-29T01:10:54.708Z,58.22
2024-02-29T01:13:25.569Z,58.20
2024-02-29T01:15:58.662Z,58.66
2024-02-29T01:18:31.312Z,58.48
2024-02-29T01:20:59.876Z,57.94
2024-02-29T01:28:47.230Z,58.43
2024-02-29T01:33:59.846Z,58.53
2024-02-29T01:39:20.808Z,58.62
2024-02-29T01:42:06.074Z,58.61
2024-02-29T01:44:59.582Z,58.31
2024-02-29T01:56:19.394Z,58.15
2024-02-29T02:04:40.305Z,58.38
2024-02-29T02:07:32.465Z,58.55
2024-02-29T02:13:15.031Z,58.84
2024-02-29T02:16:02.505Z,58.49
2024-02-29T02:18:45.005Z,58.32
2024-02-29T02:21:32.001Z,58.38
2024-02-29T02:24:29.654Z,58.28
2024-02-29T02:27:20.382Z,58.10
2024-02-29T02:30:08.909Z,58.28
2024-02-29T02:33:14.756Z,58.33
2024-02-29T02:35:41.957Z,58.18
2024-02-29T02:38:09.117Z,58.49
2024-02-29T02:44:04.857Z,58.00
2024-02-29T02:47:09.140Z,58.09
2024-02-29T02:49:48.697Z,58.15
2024-02-29T02:52:39.620Z,58.29
2024-02-29T02:57:42.096Z,58.41
2024-02-29T03:00:32.177Z,58.84
2024-02-29T03:03:09.928Z,58.33
2024-02-29T03:05:59.205Z,58.64
2024-02-29T03:08:34.820Z,58.61
2024-02-29T03:11:35.181Z,58.55
2024-02-29T03:14:12.661Z,59.13
2024-02-29T03:19:37.914Z,58.61
2024-02-29T03:22:23.314Z,58.56
2024-02-29T03:25:04.492Z,59.00
2024-02-29T03:27:42.999Z,58.83
2024-02-29T03:46:21.480Z,58.71
2024-02-29T03:48:57.625Z,59.04
2024-02-29T03:54:34.241Z,58.49
2024-02-29T03:57:22.572Z,58.78
2024-02-29T04:00:15.526Z,58.56
2024-02-29T04:06:06.575Z,58.92
2024-02-29T04:11:18.184Z,58.72
2024-02-29T04:13:56.241Z,58.70
2024-02-29T04:16:40.908Z,58.31
2024-02-29T04:19:34.869Z,58.57
2024-02-29T04:30:33.074Z,58.97
2024-02-29T04:39:11.336Z,58.97
2024-02-29T04:47:23.814Z,58.70
2024-02-29T04:50:11.598Z,58.87
2024-02-29T04:52:52.038Z,58.62
2024-02-29T05:00:43.398Z,58.15
2024-02-29T05:03:16.680Z,58.02
2024-02-29T05:08:53.154Z,58.14
2024-02-29T05:11:49.852Z,58.19
2024-02-29T05:14:23.434Z,58.42
2024-02-29T05:16:53.112Z,59.07
2024-02-29T05:35:35.385Z,58.42
2024-02-29T05:48:45.208Z,58.35
2024-02-29T06:07:30.868Z,58.18
2024-02-29T06:42:59.664Z,55.53
2024-02-29T06:57:18.672Z,55.33
2024-02-29T07:08:56.498Z,54.49
2024-02-29T07:11:29.243Z,54.54
2024-02-29T07:14:11.866Z,54.11
2024-02-29T07:17:04.894Z,53.44
2024-02-29T07:19:48.216Z,53.47
2024-02-29T07:27:32.039Z,53.51
2024-02-29T07:36:08.232Z,54.05
2024-02-29T07:44:15.346Z,53.98
2024-02-29T07:46:58.727Z,53.26
2024-02-29T07:49:41.745Z,52.09
2024-02-29T07:55:20.587Z,52.33
2024-02-29T08:06:03.072Z,52.15
2024-02-29T08:23:38.321Z,51.83
2024-02-29T08:26:27.206Z,51.55
2024-02-29T08:29:18.212Z,51.11
2024-02-29T08:31:45.085Z,50.27
2024-02-29T08:36:57.247Z,50.88
2024-02-29T08:39:40.231Z,50.86
2024-02-29T08:42:32.342Z,50.25
2024-02-29T08:45:37.748Z,51.17
2024-02-29T08:48:28.548Z,50.38
2024-02-29T08:51:16.446Z,50.47
2024-02-29T08:54:15.250Z,50.23
2024-02-29T08:57:00.978Z,49.61
2024-02-29T08:59:37.395Z,49.22
2024-02-29T09:02:14.093Z,49.53
2024-02-29T09:04:52.909Z,50.22
2024-02-29T09:07:44.108Z,50.03
2024-02-29T09:10:21.491Z,51.90
2024-02-29T09:13:08.415Z,50.50
2024-02-29T09:15:55.483Z,50.59
2024-02-29T09:18:37.489Z,51.62
2024-02-29T09:21:17.627Z,51.19
2024-02-29T09:23:54.261Z,49.76
2024-02-29T09:26:28.911Z,49.98
2024-02-29T09:29:05.268Z,48.27
2024-02-29T09:32:06.491Z,47.99
2024-02-29T09:34:50.793Z,48.21
2024-02-29T09:37:41.185Z,48.88
2024-02-29T09:40:20.972Z,47.55
2024-02-29T09:51:06.361Z,49.04
2024-02-29T09:53:49.740Z,49.03
2024-02-29T09:56:31.134Z,49.46
2024-02-29T09:59:15.117Z,49.78
2024-02-29T10:01:49.132Z,49.35
2024-02-29T10:04:41.519Z,48.88
2024-02-29T10:07:22.245Z,49.77
2024-02-29T10:10:06.217Z,49.87
2024-02-29T10:12:46.262Z,48.79
2024-02-29T10:15:21.877Z,49.13
2024-02-29T10:34:41.252Z,46.56
2024-02-29T10:37:21.389Z,46.77
2024-02-29T10:42:29.783Z,47.09
2024-02-29T10:44:56.291Z,46.71
2024-02-29T10:47:22.965Z,45.47
2024-02-29T10:49:49.562Z,45.49
2024-02-29T10:52:27.404Z,45.51
2024-02-29T10:54:56.931Z,44.36
2024-02-29T10:57:29.404Z,45.29
2024-02-29T10:59:59.718Z,45.72
2024-02-29T11:02:27.158Z,44.46
2024-02-29T11:04:54.071Z,45.84
2024-02-29T11:07:20.785Z,45.29
2024-02-29T11:09:47.491Z,45.31
2024-02-29T11:12:14.891Z,45.56
2024-02-29T11:14:45.803Z,45.00
2024-02-29T11:17:15.739Z,45.87
2024-02-29T11:19:48.160Z,46.33
2024-02-29T11:22:21.153Z,44.65
2024-02-29T11:24:47.852Z,43.91
2024-02-29T11:27:14.606Z,45.79
2024-02-29T11:29:46.251Z,45.00
2024-02-29T11:32:12.805Z,46.38
2024-02-29T11:34:39.395Z,46.71
2024-02-29T11:37:06.263Z,46.71
2024-02-29T11:39:32.943Z,46.06
2024-02-29T11:42:44.871Z,46.17
2024-02-29T11:50:53.309Z,46.94
2024-02-29T11:53:53.369Z,47.26
2024-02-29T11:56:31.057Z,45.54
2024-02-29T11:59:23.260Z,47.03
2024-02-29T12:02:02.487Z,45.97
2024-02-29T12:04:49.377Z,46.45
2024-02-29T12:10:28.696Z,45.68
2024-02-29T12:13:11.333Z,45.94
2024-02-29T12:21:40.902Z,45.95
2024-02-29T12:24:09.049Z,45.99
2024-02-29T12:26:36.668Z,46.83
2024-02-29T12:29:03.830Z,47.47
2024-02-29T12:31:33.924Z,46.76
2024-02-29T12:34:05.095Z,47.17
2024-02-29T12:36:33.405Z,48.88
2024-02-29T12:39:02.634Z,49.32
2024-02-29T12:41:29.268Z,46.93
2024-02-29T12:44:02.880Z,47.29
2024-02-29T12:46:29.866Z,48.09
2024-02-29T12:48:57.695Z,47.27
2024-02-29T12:51:24.979Z,47.06
2024-02-29T12:53:52.719Z,47.70
2024-02-29T12:56:25.726Z,48.43
2024-02-29T12:58:53.451Z,48.37
2024-02-29T13:01:26.532Z,48.06
2024-02-29T13:03:54.394Z,48.26
2024-02-29T13:06:21.866Z,48.00
2024-02-29T13:08:52.757Z,48.28
2024-02-29T13:11:19.666Z,47.98
2024-02-29T13:13:46.909Z,48.07
2024-02-29T13:16:18.507Z,47.75
2024-02-29T13:18:45.768Z,48.39
2024-02-29T13:21:12.907Z,48.43
2024-02-29T13:23:40.576Z,48.20
2024-02-29T13:26:10.303Z,47.90
2024-02-29T13:28:37.439Z,47.83
2024-02-29T13:31:04.606Z,47.52
2024-02-29T13:33:32.438Z,47.64
2024-02-29T13:35:59.437Z,47.04
2024-02-29T13:38:27.013Z,47.64
2024-02-29T13:40:54.240Z,47.84
2024-02-29T13:43:21.886Z,47.84
2024-02-29T13:45:49.266Z,47.73
2024-02-29T13:48:16.495Z,47.64
2024-02-29T13:50:43.843Z,46.71
2024-02-29T13:53:10.879Z,47.31
2024-02-29T13:55:39.614Z,47.35
2024-02-29T13:58:06.678Z,47.52
2024-02-29T14:00:34.227Z,47.95
2024-02-29T14:03:03.202Z,47.44
2024-02-29T14:05:31.083Z,47.07
2024-02-29T14:07:58.102Z,47.32
2024-02-29T14:10:25.251Z,47.69
2024-02-29T14:12:52.057Z,47.31
2024-02-29T14:15:20.819Z,47.32
2024-02-29T14:17:52.409Z,47.63
2024-02-29T14:20:19.887Z,47.49
2024-02-29T14:22:49.723Z,47.91
2024-02-29T14:25:17.643Z,47.18
2024-02-29T14:27:44.960Z,47.27
2024-02-29T14:30:14.932Z,47.14
2024-02-29T14:32:44.608Z,47.42
2024-02-29T14:35:16.378Z,47.35
2024-02-29T14:40:15.231Z,47.67
2024-02-29T14:45:18.766Z,47.34
2024-02-29T14:47:46.846Z,47.55
2024-02-29T14:50:14.502Z,47.50
2024-02-29T14:52:42.388Z,47.49
2024-02-29T14:55:09.674Z,46.68
2024-02-29T14:57:39.480Z,46.90
2024-02-29T15:00:13.438Z,46.50
2024-02-29T15:02:48.171Z,46.81
2024-02-29T15:05:17.326Z,46.80
2024-02-29T15:07:44.520Z,46.92
2024-02-29T15:10:15.587Z,46.74
2024-02-29T15:12:42.951Z,47.09
2024-02-29T15:15:10.401Z,46.71
2024-02-29T15:17:37.491Z,47.15
2024-02-29T15:20:05.911Z,47.07
2024-02-29T15:22:37.458Z,47.09
2024-02-29T15:25:15.129Z,47.24
2024-02-29T15:27:54.978Z,46.83
2024-02-29T15:30:22.066Z,47.22
2024-02-29T15:32:48.979Z,47.22
2024-02-29T15:35:16.278Z,46.86
2024-02-29T15:37:43.459Z,47.21
2024-02-29T15:40:12.969Z,47.26
2024-02-29T15:42:40.827Z,47.42
2024-02-29T15:45:08.470Z,47.65
2024-02-29T15:47:35.881Z,47.10
2024-02-29T15:50:03.117Z,47.12
2024-02-29T15:52:44.967Z,47.04
2024-02-29T15:55:11.823Z,47.32
2024-02-29T16:09:19.173Z,47.43
2024-02-29T16:12:08.172Z,47.58
2024-02-29T16:14:35.019Z,47.58
2024-02-29T16:17:03.405Z,47.54
2024-02-29T16:19:30.418Z,47.80
2024-02-29T16:22:00.166Z,48.26
2024-02-29T16:24:29.008Z,47.58
2024-02-29T16:26:56.073Z,47.73
2024-02-29T16:29:23.069Z,47.90
2024-02-29T16:31:49.919Z,48.00
2024-02-29T16:34:21.474Z,48.04
2024-02-29T16:39:38.024Z,48.23
2024-02-29T16:42:11.964Z,47.71
2024-02-29T16:44:40.801Z,48.20
2024-02-29T16:47:10.195Z,48.26
2024-02-29T16:49:42.789Z,48.51
2024-02-29T16:52:12.813Z,48.70
2024-02-29T16:54:40.160Z,48.69
2024-02-29T16:57:07.481Z,48.52
2024-02-29T16:59:35.807Z,48.70
2024-02-29T17:02:15.372Z,48.63
2024-02-29T17:04:52.762Z,48.83
2024-02-29T17:07:21.632Z,48.95
2024-02-29T17:09:53.932Z,48.97
2024-02-29T17:12:23.278Z,49.27
2024-02-29T17:14:54.019Z,49.37
2024-02-29T17:17:21.661Z,49.77
2024-02-29T17:20:11.531Z,49.73
2024-02-29T17:22:46.003Z,50.11
2024-02-29T17:25:14.670Z,50.38
2024-02-29T17:27:42.660Z,50.06
2024-02-29T17:30:13.385Z,50.31
2024-02-29T17:32:47.490Z,50.28
2024-02-29T17:35:17.873Z,50.42
2024-02-29T17:37:45.287Z,50.99
2024-02-29T17:40:13.150Z,51.23
2024-02-29T17:42:41.344Z,51.58
2024-02-29T17:45:08.985Z,51.34
2024-02-29T17:47:36.489Z,51.53
2024-02-29T17:50:03.981Z,52.05
2024-02-29T17:52:31.240Z,51.97
2024-02-29T17:54:59.235Z,52.36
2024-02-29T17:57:26.437Z,52.61
2024-02-29T17:59:57.051Z,53.04
2024-02-29T18:02:24.057Z,53.04
2024-02-29T18:04:52.398Z,53.80
2024-02-29T18:07:25.305Z,53.53
2024-02-29T18:09:53.387Z,54.03
2024-02-29T18:12:29.190Z,54.25
2024-02-29T18:15:16.749Z,54.04
2024-02-29T18:20:56.279Z,54.77
2024-02-29T18:23:24.053Z,54.58
2024-02-29T18:25:51.306Z,54.96
2024-02-29T18:28:20.920Z,55.09
2024-02-29T18:30:49.581Z,55.19
2024-02-29T18:33:17.420Z,55.32
2024-02-29T18:35:46.880Z,55.64
2024-02-29T18:38:14.126Z,55.65
2024-02-29T18:40:44.544Z,55.78
2024-02-29T18:46:05.897Z,55.71
2024-02-29T18:48:46.021Z,55.78
2024-02-29T18:51:13.599Z,56.10
2024-02-29T19:04:32.367Z,56.16
2024-02-29T19:07:27.749Z,56.32
2024-02-29T19:14:13.452Z,56.39
2024-02-29T19:17:17.201Z,56.33
2024-02-29T19:19:47.048Z,56.36
2024-02-29T19:22:16.508Z,56.33
2024-02-29T19:24:43.100Z,56.19
2024-02-29T19:27:20.571Z,56.53
2024-02-29T19:29:53.543Z,56.63
2024-02-29T19:32:20.614Z,56.47
2024-02-29T19:34:47.159Z,56.74
2024-02-29T19:37:13.896Z,56.60
2024-02-29T19:39:40.608Z,56.47
2024-02-29T19:42:09.144Z,56.48
2024-02-29T19:44:35.644Z,56.53
2024-02-29T19:47:02.167Z,56.54
2024-02-29T19:49:28.814Z,56.42
2024-02-29T19:51:56.627Z,56.40
2024-02-29T19:54:23.197Z,56.46
2024-02-29T19:56:49.770Z,56.79
2024-02-29T19:59:16.254Z,56.62
2024-02-29T20:01:42.974Z,56.91
2024-02-29T20:04:09.726Z,56.69
2024-02-29T20:06:36.298Z,56.91
2024-02-29T20:09:02.934Z,57.53
2024-02-29T20:11:29.551Z,57.55
2024-02-29T20:13:56.390Z,57.28
2024-02-29T20:16:23.210Z,57.54
2024-02-29T20:18:49.813Z,57.21
2024-02-29T20:21:17.401Z,57.39
2024-02-29T20:23:44.177Z,57.50
2024-02-29T20:26:16.012Z,57.43
2024-02-29T20:28:42.944Z,57.20
2024-02-29T20:31:09.750Z,57.06
2024-02-29T20:33:36.889Z,57.09
2024-02-29T20:36:03.836Z,57.12
2024-02-29T20:38:30.740Z,57.19
2024-02-29T20:40:57.500Z,57.38
2024-02-29T20:43:24.098Z,57.60
2024-02-29T20:45:51.909Z,57.22
2024-02-29T20:48:18.470Z,57.46
2024-02-29T20:50:44.994Z,57.28
2024-02-29T20:53:11.608Z,57.20
2024-02-29T20:55:38.234Z,57.60
2024-02-29T20:58:04.820Z,57.55
2024-02-29T21:00:31.337Z,57.47
2024-02-29T21:02:57.897Z,57.53
2024-02-29T21:05:24.957Z,57.58
2024-02-29T21:07:51.570Z,57.35
2024-02-29T21:10:18.569Z,57.30
2024-02-29T21:12:45.729Z,57.55
2024-02-29T21:15:12.355Z,57.79
2024-02-29T21:17:39.262Z,57.57
2024-02-29T21:20:06.713Z,57.57
2024-02-29T21:22:33.324Z,57.82
2024-02-29T21:25:02.472Z,57.53
2024-02-29T21:27:29.199Z,57.87
2024-02-29T21:29:55.683Z,57.76
2024-02-29T21:32:22.204Z,57.20
2024-02-29T21:34:48.796Z,57.30
2024-02-29T21:37:15.579Z,57.17
2024-02-29T21:39:45.132Z,57.16
2024-02-29T21:42:12.421Z,57.32
2024-02-29T21:44:39.739Z,58.05
2024-02-29T21:47:06.336Z,57.30
2024-02-29T21:49:32.949Z,57.50
2024-02-29T21:52:00.049Z,57.25
2024-02-29T21:54:26.867Z,57.61
2024-02-29T21:56:53.437Z,57.13
2024-02-29T21:59:20.123Z,57.12
2024-02-29T22:01:47.816Z,57.42
2024-02-29T22:04:14.558Z,57.24
2024-02-29T22:06:42.856Z,57.16
2024-02-29T22:09:09.413Z,57.64
2024-02-29T22:11:35.963Z,57.53
2024-02-29T22:14:02.755Z,58.04
2024-02-29T22:16:29.690Z,57.87
2024-02-29T22:18:56.593Z,57.75
2024-02-29T22:21:29.252Z,57.96
2024-02-29T22:23:56.907Z,58.24
2024-02-29T22:26:26.482Z,58.66
2024-02-29T22:28:53.165Z,58.54
2024-02-29T22:31:19.960Z,58.27
2024-02-29T22:33:46.575Z,58.70
2024-02-29T22:36:13.399Z,58.41
2024-02-29T22:38:40.269Z,58.17
2024-02-29T22:41:06.816Z,58.38
2024-02-29T22:43:33.629Z,58.37
2024-02-29T22:46:00.280Z,58.42
2024-02-29T22:48:26.781Z,58.35
2024-02-29T22:50:53.393Z,58.70
2024-02-29T22:53:19.875Z,58.25
2024-02-29T22:55:50.561Z,58.79
2024-02-29T22:58:17.397Z,58.60
2024-02-29T23:00:43.991Z,58.40
2024-02-29T23:03:10.553Z,58.40
2024-02-29T23:05:38.645Z,58.43
2024-02-29T23:08:10.874Z,58.88
2024-02-29T23:10:39.256Z,58.78
2024-02-29T23:13:06.923Z,58.25
2024-02-29T23:15:33.744Z,58.28
2024-02-29T23:18:01.422Z,58.47
2024-02-29T23:20:28.241Z,58.05
2024-02-29T23:22:55.818Z,58.19
2024-02-29T23:25:25.170Z,58.31
2024-02-29T23:27:52.185Z,58.09
2024-02-29T23:30:18.738Z,58.38
2024-02-29T23:32:45.304Z,58.18
2024-02-29T23:35:11.829Z,58.40
2024-02-29T23:37:38.428Z,58.36
2024-02-29T23:40:06.074Z,58.07
2024-02-29T23:42:32.620Z,58.55
2024-02-29T23:44:59.166Z,58.74
2024-02-29T23:47:25.712Z,59.10
2024-02-29T23:49:52.209Z,58.59
2024-02-29T23:52:18.785Z,58.80
2024-02-29T23:54:46.817Z,58.35
2024-02-29T23:57:14.020Z,58.83
2024-02-29T23:59:40.592Z,58.65
